Time;durP1;ratioP1;P1;durP2;ratioP2;P2;SDS_P1;SDS_P2;PMS_P1;PMS_P2;Temp;Humidity;BMP_temperature;BMP_pressure;BME280_temperature;BME280_humidity;BME280_pressure;Samples;Min_cycle;Max_cycle;Signal;HPM_P1;HPM_P2
2023/12/28 00:00:51;;;;;;;17.42;3.90;;;;;;;;;;4908145;29;20043;-75
2023/12/28 00:03:17;;;;;;;15.30;3.58;;;;;;;;;;4912192;29;20399;-74
2023/12/28 00:05:43;;;;;;;11.50;3.45;;;;;;;;;;4929397;29;20051;-75
2023/12/28 00:08:10;;;;;;;14.43;2.85;;;;;;;;;;4935366;29;20040;-75
2023/12/28 00:10:37;;;;;;;11.93;3.00;;;;;;;;;;4935563;29;20079;-75
2023/12/28 00:13:03;;;;;;;9.80;2.65;;;;;;;;;;4933560;29;20074;-75
2023/12/28 00:15:29;;;;;;;14.63;3.50;;;;;;;;;;4925451;29;20126;-75
2023/12/28 00:17:55;;;;;;;17.15;3.17;;;;;;;;;;4935341;29;20043;-75
2023/12/28 00:20:21;;;;;;;11.93;3.20;;;;;;;;;;4927104;29;20055;-75
2023/12/28 00:22:47;;;;;;;20.10;3.00;;;;;;;;;;4935175;28;20043;-75
2023/12/28 00:25:14;;;;;;;16.77;4.47;;;;;;;;;;4920730;29;20040;-74
2023/12/28 00:27:40;;;;;;;17.88;3.33;;;;;;;;;;4918311;29;20067;-75
2023/12/28 00:30:07;;;;;;;16.08;3.28;;;;;;;;;;4931676;29;20047;-75
2023/12/28 00:32:33;;;;;;;15.05;3.20;;;;;;;;;;4935449;29;20134;-75
2023/12/28 00:34:59;;;;;;;20.63;4.25;;;;;;;;;;4929217;29;20031;-75
2023/12/28 00:37:25;;;;;;;23.77;3.45;;;;;;;;;;4918060;29;20047;-75
2023/12/28 00:39:51;;;;;;;23.90;3.67;;;;;;;;;;4935180;29;20483;-75
2023/12/28 00:42:19;;;;;;;25.50;3.40;;;;;;;;;;4933816;29;20539;-76
2023/12/28 00:44:45;;;;;;;12.77;3.78;;;;;;;;;;4935138;29;20148;-75
2023/12/28 00:47:11;;;;;;;18.50;3.85;;;;;;;;;;4935092;29;20039;-76
2023/12/28 00:49:37;;;;;;;17.25;2.60;;;;;;;;;;4953044;28;20050;-75
2023/12/28 00:52:04;;;;;;;18.45;3.35;;;;;;;;;;4932511;28;20050;-75
2023/12/28 00:54:30;;;;;;;19.88;3.45;;;;;;;;;;4938045;29;20039;-75
2023/12/28 00:56:56;;;;;;;18.15;3.40;;;;;;;;;;4914266;29;20120;-75
2023/12/28 00:59:22;;;;;;;22.67;3.45;;;;;;;;;;4890252;29;20400;-75
2023/12/28 01:01:48;;;;;;;19.98;3.25;;;;;;;;;;4930622;29;20047;-75
2023/12/28 01:04:14;;;;;;;18.58;3.10;;;;;;;;;;4937767;29;20233;-75
2023/12/28 01:06:40;;;;;;;17.65;3.22;;;;;;;;;;4909322;29;20069;-75
2023/12/28 01:09:06;;;;;;;18.92;3.42;;;;;;;;;;4922704;29;20127;-76
2023/12/28 01:11:33;;;;;;;18.02;3.08;;;;;;;;;;4927528;29;20036;-75
2023/12/28 01:13:59;;;;;;;17.13;3.00;;;;;;;;;;4928073;29;20110;-75
2023/12/28 01:16:25;;;;;;;19.73;4.63;;;;;;;;;;4937564;29;20043;-75
2023/12/28 01:18:51;;;;;;;19.52;4.13;;;;;;;;;;4938193;29;20481;-75
2023/12/28 01:21:17;;;;;;;20.63;3.70;;;;;;;;;;4936447;29;20057;-75
2023/12/28 01:23:43;;;;;;;22.90;3.22;;;;;;;;;;4928479;29;20396;-75
2023/12/28 01:26:14;;;;;;;22.05;4.25;;;;;;;;;;4926114;29;20035;-75
2023/12/28 01:28:40;;;;;;;14.85;3.70;;;;;;;;;;4937724;29;20050;-75
2023/12/28 01:31:06;;;;;;;29.48;3.78;;;;;;;;;;4927261;29;20067;-75
2023/12/28 01:33:32;;;;;;;18.00;3.83;;;;;;;;;;4899797;29;20036;-75
2023/12/28 01:35:58;;;;;;;21.50;3.70;;;;;;;;;;4922193;29;20032;-76
2023/12/28 01:38:24;;;;;;;23.05;4.13;;;;;;;;;;4937662;29;20137;-75
2023/12/28 01:40:50;;;;;;;23.48;4.07;;;;;;;;;;4936949;29;20759;-75
2023/12/28 01:43:16;;;;;;;21.33;3.67;;;;;;;;;;4908863;29;20040;-75
2023/12/28 01:45:42;;;;;;;23.80;3.75;;;;;;;;;;4920225;29;20043;-75
2023/12/28 01:48:09;;;;;;;20.88;3.60;;;;;;;;;;4917523;29;20152;-75
2023/12/28 01:50:36;;;;;;;20.60;4.05;;;;;;;;;;4937596;29;20031;-76
2023/12/28 01:53:02;;;;;;;26.70;3.40;;;;;;;;;;4918759;29;20070;-75
2023/12/28 01:55:29;;;;;;;16.88;3.05;;;;;;;;;;4937240;29;20491;-75
2023/12/28 01:57:55;;;;;;;22.35;4.05;;;;;;;;;;4927653;29;20043;-75
2023/12/28 02:00:24;;;;;;;21.35;3.00;;;;;;;;;;4932083;29;20075;-75
2023/12/28 02:02:51;;;;;;;16.27;3.20;;;;;;;;;;4926773;28;20054;-75
2023/12/28 02:05:17;;;;;;;27.88;3.63;;;;;;;;;;4937066;29;20047;-75
2023/12/28 02:07:43;;;;;;;28.25;4.80;;;;;;;;;;4929983;29;20346;-75
2023/12/28 02:10:09;;;;;;;25.65;3.97;;;;;;;;;;4921211;29;20051;-75
2023/12/28 02:12:36;;;;;;;23.58;3.70;;;;;;;;;;4937236;29;20063;-75
2023/12/28 02:15:02;;;;;;;24.95;3.50;;;;;;;;;;4937093;29;20463;-75
2023/12/28 02:17:43;;;;;;;19.30;3.60;;;;;;;;;;4919285;28;20047;-75
2023/12/28 02:20:10;;;;;;;17.17;2.85;;;;;;;;;;4932850;29;20110;-75
2023/12/28 02:22:36;;;;;;;17.75;3.22;;;;;;;;;;4920443;29;20054;-75
2023/12/28 02:25:02;;;;;;;23.70;4.38;;;;;;;;;;4914326;29;20093;-75
2023/12/28 02:27:29;;;;;;;17.88;2.97;;;;;;;;;;4942856;28;20167;-75
2023/12/28 02:29:56;;;;;;;23.27;4.97;;;;;;;;;;4929770;29;20039;-75
2023/12/28 02:32:26;;;;;;;13.98;2.65;;;;;;;;;;4909805;29;20041;-75
2023/12/28 02:34:53;;;;;;;19.42;3.05;;;;;;;;;;4888822;29;20047;-76
2023/12/28 02:37:20;;;;;;;22.63;4.03;;;;;;;;;;4929744;29;20043;-75
2023/12/28 02:39:47;;;;;;;22.95;4.13;;;;;;;;;;4951358;29;20101;-75
2023/12/28 02:42:14;;;;;;;25.67;4.45;;;;;;;;;;4931349;29;20451;-76
2023/12/28 02:44:40;;;;;;;18.55;3.10;;;;;;;;;;4904734;29;20058;-75
2023/12/28 02:47:06;;;;;;;23.20;3.25;;;;;;;;;;4925165;29;20127;-75
2023/12/28 02:49:32;;;;;;;21.55;3.47;;;;;;;;;;4919678;29;20043;-75
2023/12/28 02:51:58;;;;;;;17.38;2.72;;;;;;;;;;4923806;29;20443;-75
2023/12/28 02:54:24;;;;;;;21.35;3.17;;;;;;;;;;4936353;29;20041;-75
2023/12/28 02:56:50;;;;;;;16.05;2.97;;;;;;;;;;4925465;29;20481;-75
2023/12/28 02:59:16;;;;;;;19.67;3.42;;;;;;;;;;4909818;28;20506;-76
2023/12/28 03:01:42;;;;;;;17.67;3.13;;;;;;;;;;4909609;29;20475;-75
2023/12/28 03:04:09;;;;;;;24.70;3.47;;;;;;;;;;4930086;29;20051;-75
2023/12/28 03:06:35;;;;;;;21.67;3.15;;;;;;;;;;4924995;29;20059;-75
2023/12/28 03:09:01;;;;;;;18.13;2.83;;;;;;;;;;4932043;29;20506;-75
2023/12/28 03:11:27;;;;;;;14.13;3.33;;;;;;;;;;4935592;29;20126;-75
2023/12/28 03:13:53;;;;;;;14.48;2.55;;;;;;;;;;4935727;29;20440;-75
2023/12/28 03:16:19;;;;;;;18.40;2.72;;;;;;;;;;4934939;29;20057;-75
2023/12/28 03:18:45;;;;;;;19.10;2.72;;;;;;;;;;4932864;29;20039;-75
2023/12/28 03:21:12;;;;;;;17.58;3.00;;;;;;;;;;4932597;29;20056;-75
2023/12/28 03:23:38;;;;;;;15.20;2.95;;;;;;;;;;4931547;29;20051;-75
2023/12/28 03:26:04;;;;;;;22.30;3.60;;;;;;;;;;4915464;29;20052;-75
2023/12/28 03:28:30;;;;;;;18.10;3.00;;;;;;;;;;4927074;29;20040;-75
2023/12/28 03:30:56;;;;;;;18.65;2.80;;;;;;;;;;4884493;29;20070;-76
2023/12/28 03:33:22;;;;;;;19.77;3.10;;;;;;;;;;4916330;29;20127;-75
2023/12/28 03:35:48;;;;;;;15.77;2.50;;;;;;;;;;4933173;29;20047;-77
2023/12/28 03:38:15;;;;;;;16.25;2.78;;;;;;;;;;4914289;29;20094;-76
2023/12/28 03:40:41;;;;;;;15.30;2.83;;;;;;;;;;4931098;29;20044;-76
2023/12/28 03:43:07;;;;;;;17.70;2.30;;;;;;;;;;4932437;29;20043;-77
2023/12/28 03:45:33;;;;;;;25.02;3.45;;;;;;;;;;4915255;29;20148;-75
2023/12/28 03:47:59;;;;;;;19.70;2.85;;;;;;;;;;4894761;29;20047;-75
2023/12/28 03:50:25;;;;;;;12.95;3.35;;;;;;;;;;4916577;29;20198;-76
2023/12/28 03:52:51;;;;;;;11.90;2.72;;;;;;;;;;4906180;29;20040;-75
2023/12/28 03:55:17;;;;;;;16.55;2.58;;;;;;;;;;4909743;29;20042;-76
2023/12/28 03:57:46;;;;;;;11.88;2.53;;;;;;;;;;4932179;29;20051;-76
2023/12/28 04:00:12;;;;;;;17.05;3.20;;;;;;;;;;4930718;29;20040;-76
2023/12/28 04:02:40;;;;;;;16.02;2.70;;;;;;;;;;4929387;29;20488;-76
2023/12/28 04:05:07;;;;;;;18.73;3.90;;;;;;;;;;4909865;29;20541;-76
2023/12/28 04:07:33;;;;;;;17.90;3.35;;;;;;;;;;4916127;29;20066;-75
2023/12/28 04:09:59;;;;;;;22.23;3.38;;;;;;;;;;4916435;29;20118;-76
2023/12/28 04:12:25;;;;;;;15.35;3.08;;;;;;;;;;4910021;29;20548;-76
2023/12/28 04:14:51;;;;;;;17.02;2.90;;;;;;;;;;4901789;29;20454;-75
2023/12/28 04:17:17;;;;;;;14.77;3.00;;;;;;;;;;4914322;29;20032;-76
2023/12/28 04:19:44;;;;;;;22.13;3.28;;;;;;;;;;4899469;29;20054;-76
2023/12/28 04:22:10;;;;;;;20.10;2.90;;;;;;;;;;4899049;29;20063;-76
2023/12/28 04:24:37;;;;;;;20.30;3.30;;;;;;;;;;4905836;29;20059;-76
2023/12/28 04:27:03;;;;;;;15.85;2.67;;;;;;;;;;4917235;29;20471;-76
2023/12/28 04:29:29;;;;;;;17.42;2.80;;;;;;;;;;4919797;29;20099;-76
2023/12/28 04:31:55;;;;;;;24.55;2.80;;;;;;;;;;4909788;29;20409;-76
2023/12/28 04:34:22;;;;;;;25.00;3.60;;;;;;;;;;4894054;29;20044;-76
2023/12/28 04:36:48;;;;;;;18.98;4.13;;;;;;;;;;4925615;29;20477;-76
2023/12/28 04:39:14;;;;;;;17.63;3.35;;;;;;;;;;4908367;29;20087;-76
2023/12/28 04:41:40;;;;;;;28.90;3.67;;;;;;;;;;4935326;29;20408;-74
2023/12/28 04:44:07;;;;;;;24.33;4.10;;;;;;;;;;4915824;29;20059;-76
2023/12/28 04:46:33;;;;;;;19.67;3.85;;;;;;;;;;4892538;29;20460;-76
2023/12/28 04:48:59;;;;;;;21.10;3.75;;;;;;;;;;4919480;29;20040;-76
2023/12/28 04:51:25;;;;;;;18.75;3.92;;;;;;;;;;4935113;29;20109;-75
2023/12/28 04:53:51;;;;;;;18.38;3.33;;;;;;;;;;4918115;29;20064;-76
2023/12/28 04:56:20;;;;;;;15.73;3.65;;;;;;;;;;4928638;29;20409;-75
2023/12/28 04:58:46;;;;;;;20.70;3.22;;;;;;;;;;4935136;29;20460;-76
2023/12/28 05:01:12;;;;;;;21.42;3.30;;;;;;;;;;4922982;29;20035;-76
2023/12/28 05:03:38;;;;;;;15.70;3.13;;;;;;;;;;4931864;29;20480;-76
2023/12/28 05:06:04;;;;;;;19.17;3.28;;;;;;;;;;4934941;29;20496;-75
2023/12/28 05:08:30;;;;;;;18.75;3.08;;;;;;;;;;4927720;29;20044;-76
2023/12/28 05:10:56;;;;;;;17.70;3.28;;;;;;;;;;4907713;29;20083;-76
2023/12/28 05:13:22;;;;;;;29.70;3.92;;;;;;;;;;4931473;29;20710;-76
2023/12/28 05:15:49;;;;;;;21.88;3.40;;;;;;;;;;4935060;29;20036;-76
2023/12/28 05:18:15;;;;;;;20.98;2.90;;;;;;;;;;4918817;29;20040;-76
2023/12/28 05:20:41;;;;;;;23.25;3.38;;;;;;;;;;4920106;29;20411;-76
2023/12/28 05:23:07;;;;;;;29.80;5.50;;;;;;;;;;4933198;29;20648;-76
2023/12/28 05:25:33;;;;;;;18.80;4.20;;;;;;;;;;4933642;29;20362;-76
2023/12/28 05:27:59;;;;;;;28.17;3.72;;;;;;;;;;4928878;29;20127;-75
2023/12/28 05:30:25;;;;;;;28.63;3.85;;;;;;;;;;4910442;29;20051;-76
2023/12/28 05:32:51;;;;;;;21.15;3.70;;;;;;;;;;4906339;29;20091;-76
2023/12/28 05:35:17;;;;;;;25.08;4.10;;;;;;;;;;4918838;29;20048;-76
2023/12/28 05:37:43;;;;;;;22.98;4.05;;;;;;;;;;4927623;29;20040;-75
2023/12/28 05:40:10;;;;;;;17.42;4.00;;;;;;;;;;4923758;29;20059;-76
2023/12/28 05:42:37;;;;;;;21.45;2.97;;;;;;;;;;4928628;29;20047;-75
2023/12/28 05:45:03;;;;;;;18.83;3.20;;;;;;;;;;4934635;29;20043;-75
2023/12/28 05:47:29;;;;;;;23.25;4.10;;;;;;;;;;4926241;29;20075;-75
2023/12/28 05:49:55;;;;;;;28.60;4.55;;;;;;;;;;4930209;29;20032;-75
2023/12/28 05:52:21;;;;;;;26.02;4.18;;;;;;;;;;4917023;29;20058;-75
2023/12/28 05:54:50;;;;;;;28.38;3.83;;;;;;;;;;4934082;29;20111;-75
2023/12/28 05:57:16;;;;;;;26.90;3.55;;;;;;;;;;4934260;29;20118;-75
2023/12/28 05:59:42;;;;;;;17.63;3.13;;;;;;;;;;4905571;29;20497;-75
2023/12/28 06:02:08;;;;;;;20.45;3.92;;;;;;;;;;4904770;29;20437;-75
2023/12/28 06:04:35;;;;;;;24.05;3.85;;;;;;;;;;4926734;29;20057;-75
2023/12/28 06:07:02;;;;;;;18.20;4.00;;;;;;;;;;4917202;29;20054;-75
2023/12/28 06:09:28;;;;;;;22.23;3.30;;;;;;;;;;4930913;29;20057;-75
2023/12/28 06:11:54;;;;;;;21.60;3.80;;;;;;;;;;4915918;29;20040;-76
2023/12/28 06:14:21;;;;;;;22.55;3.50;;;;;;;;;;4904852;29;20087;-75
2023/12/28 06:16:47;;;;;;;32.03;4.18;;;;;;;;;;4913148;29;20410;-76
2023/12/28 06:19:13;;;;;;;27.15;4.10;;;;;;;;;;4929710;29;20051;-77
2023/12/28 06:21:42;;;;;;;27.05;4.50;;;;;;;;;;4930951;29;20524;-76
2023/12/28 06:24:08;;;;;;;24.30;4.95;;;;;;;;;;4916436;29;20040;-72
2023/12/28 06:26:34;;;;;;;30.48;6.47;;;;;;;;;;4930263;29;20388;-76
2023/12/28 06:29:00;;;;;;;17.50;3.55;;;;;;;;;;4920746;29;20044;-76
2023/12/28 06:31:26;;;;;;;24.17;3.63;;;;;;;;;;4917813;29;20031;-75
2023/12/28 06:33:52;;;;;;;22.38;4.00;;;;;;;;;;4919652;29;20126;-76
2023/12/28 06:36:19;;;;;;;25.00;3.75;;;;;;;;;;4919482;29;20086;-76
2023/12/28 06:38:45;;;;;;;19.63;4.38;;;;;;;;;;4922884;29;20047;-76
2023/12/28 06:41:12;;;;;;;25.73;4.55;;;;;;;;;;4927553;29;20128;-76
2023/12/28 06:43:38;;;;;;;34.88;4.93;;;;;;;;;;4920400;29;20052;-76
2023/12/28 06:46:04;;;;;;;26.20;4.25;;;;;;;;;;4905646;29;20051;-75
2023/12/28 06:48:30;;;;;;;27.50;5.55;;;;;;;;;;4921456;29;20040;-76
2023/12/28 06:50:56;;;;;;;25.00;5.03;;;;;;;;;;4931967;29;20039;-76
2023/12/28 06:53:22;;;;;;;25.90;3.97;;;;;;;;;;4913143;29;20040;-76
2023/12/28 06:55:48;;;;;;;25.88;4.72;;;;;;;;;;4917572;29;20039;-76
2023/12/28 06:58:14;;;;;;;30.33;4.82;;;;;;;;;;4911792;29;20524;-76
2023/12/28 07:00:41;;;;;;;20.55;3.70;;;;;;;;;;4910351;29;20048;-76
2023/12/28 07:03:07;;;;;;;32.97;5.57;;;;;;;;;;4917174;29;20516;-75
2023/12/28 07:05:33;;;;;;;22.45;3.65;;;;;;;;;;4919817;29;20050;-76
2023/12/28 07:07:59;;;;;;;24.70;4.38;;;;;;;;;;4911340;29;20118;-76
2023/12/28 07:10:25;;;;;;;23.85;4.30;;;;;;;;;;4925389;29;20031;-76
2023/12/28 07:12:52;;;;;;;32.10;5.78;;;;;;;;;;4917802;29;20107;-76
2023/12/28 07:15:18;;;;;;;24.65;4.63;;;;;;;;;;4921140;29;20032;-76
2023/12/28 07:17:44;;;;;;;26.80;4.95;;;;;;;;;;4928957;29;20131;-76
2023/12/28 07:20:10;;;;;;;30.05;4.55;;;;;;;;;;4925376;29;20067;-76
2023/12/28 07:22:37;;;;;;;26.05;4.20;;;;;;;;;;4922701;29;20091;-74
2023/12/28 07:25:03;;;;;;;26.80;4.45;;;;;;;;;;4918118;29;20046;-75
2023/12/28 07:27:29;;;;;;;29.95;5.35;;;;;;;;;;4927636;29;20103;-75
2023/12/28 07:29:56;;;;;;;29.35;4.55;;;;;;;;;;4933537;29;20059;-75
2023/12/28 07:32:25;;;;;;;30.90;4.75;;;;;;;;;;4918207;29;20051;-75
2023/12/28 07:34:51;;;;;;;27.75;4.57;;;;;;;;;;4934432;29;20043;-75
2023/12/28 07:37:17;;;;;;;31.50;4.82;;;;;;;;;;4934417;29;20054;-75
2023/12/28 07:39:44;;;;;;;32.83;4.63;;;;;;;;;;4902146;29;20048;-75
2023/12/28 07:42:10;;;;;;;40.25;5.57;;;;;;;;;;4915074;29;20044;-75
2023/12/28 07:44:36;;;;;;;30.25;4.78;;;;;;;;;;4899600;29;20119;-75
2023/12/28 07:47:02;;;;;;;26.83;4.32;;;;;;;;;;4899750;29;20079;-75
2023/12/28 07:49:29;;;;;;;43.97;5.55;;;;;;;;;;4899285;29;20456;-74
2023/12/28 07:51:55;;;;;;;37.45;5.82;;;;;;;;;;4899847;29;20051;-80
2023/12/28 07:54:21;;;;;;;34.25;4.88;;;;;;;;;;4900151;29;20084;-80
2023/12/28 07:56:47;;;;;;;31.65;5.88;;;;;;;;;;4915710;29;20476;-80
2023/12/28 07:59:14;;;;;;;36.17;5.70;;;;;;;;;;4901772;29;20370;-80
2023/12/28 08:01:40;;;;;;;30.52;5.57;;;;;;;;;;4931839;29;20040;-79
2023/12/28 08:04:06;;;;;;;33.78;5.63;;;;;;;;;;4906879;29;20047;-80
2023/12/28 08:06:32;;;;;;;37.88;5.15;;;;;;;;;;4938361;29;20047;-80
2023/12/28 08:09:00;;;;;;;29.98;5.07;;;;;;;;;;4936897;29;20142;-80
2023/12/28 08:11:27;;;;;;;38.22;7.07;;;;;;;;;;4922317;29;20078;-79
2023/12/28 08:13:53;;;;;;;33.10;5.18;;;;;;;;;;4938248;29;20477;-79
2023/12/28 08:16:19;;;;;;;37.25;6.88;;;;;;;;;;4922489;29;20054;-80
2023/12/28 08:18:46;;;;;;;39.88;4.95;;;;;;;;;;4922545;29;20051;-78
2023/12/28 08:21:12;;;;;;;41.40;5.72;;;;;;;;;;4921914;29;20515;-78
2023/12/28 08:23:38;;;;;;;36.20;6.53;;;;;;;;;;4922116;29;20044;-78
2023/12/28 08:26:04;;;;;;;37.47;5.90;;;;;;;;;;4906436;29;20047;-79
2023/12/28 08:28:31;;;;;;;36.40;5.95;;;;;;;;;;4937712;29;20086;-78
2023/12/28 08:30:57;;;;;;;33.85;4.65;;;;;;;;;;4919830;29;20040;-78
2023/12/28 08:33:23;;;;;;;42.75;6.57;;;;;;;;;;4922363;29;20185;-78
2023/12/28 08:35:49;;;;;;;37.13;7.78;;;;;;;;;;4938643;29;20042;-77
2023/12/28 08:38:16;;;;;;;35.88;5.93;;;;;;;;;;4924502;29;20126;-78
2023/12/28 08:40:44;;;;;;;28.48;5.40;;;;;;;;;;4910050;29;20488;-77
2023/12/28 08:43:10;;;;;;;40.10;7.13;;;;;;;;;;4941673;29;20051;-78
2023/12/28 08:45:36;;;;;;;38.80;6.30;;;;;;;;;;4939901;29;20043;-78
2023/12/28 08:48:02;;;;;;;37.05;5.40;;;;;;;;;;4905640;29;20063;-78
2023/12/28 08:50:28;;;;;;;33.88;5.03;;;;;;;;;;4902983;29;20040;-78
2023/12/28 08:52:55;;;;;;;35.47;5.35;;;;;;;;;;4902684;29;20048;-79
2023/12/28 08:55:21;;;;;;;37.83;6.45;;;;;;;;;;4918382;29;20079;-78
2023/12/28 08:57:47;;;;;;;36.40;5.40;;;;;;;;;;4918064;29;20040;-79
2023/12/28 09:00:18;;;;;;;28.92;4.97;;;;;;;;;;4918201;29;20044;-78
2023/12/28 09:02:44;;;;;;;33.95;5.55;;;;;;;;;;4918674;29;20044;-78
2023/12/28 09:05:10;;;;;;;33.17;5.07;;;;;;;;;;4902285;29;20484;-79
2023/12/28 09:07:42;;;;;;;37.10;5.88;;;;;;;;;;4917919;29;20445;-79
2023/12/28 09:10:09;;;;;;;32.90;5.97;;;;;;;;;;4901934;29;20339;-79
2023/12/28 09:12:35;;;;;;;31.60;5.85;;;;;;;;;;4918161;29;20043;-78
2023/12/28 09:15:02;;;;;;;32.13;5.47;;;;;;;;;;4916023;29;20123;-78
2023/12/28 09:17:28;;;;;;;36.42;4.78;;;;;;;;;;4921163;29;20102;-78
2023/12/28 09:19:54;;;;;;;46.80;6.18;;;;;;;;;;4936879;29;20036;-79
2023/12/28 09:22:20;;;;;;;37.97;5.78;;;;;;;;;;4920714;29;20055;-78
2023/12/28 09:24:46;;;;;;;36.60;5.65;;;;;;;;;;4937046;29;20114;-78
2023/12/28 09:27:12;;;;;;;30.73;4.80;;;;;;;;;;4905684;29;20048;-79
2023/12/28 09:29:38;;;;;;;33.63;4.63;;;;;;;;;;4915165;29;20044;-79
2023/12/28 09:32:04;;;;;;;34.22;4.57;;;;;;;;;;4902078;29;20067;-79
2023/12/28 09:34:30;;;;;;;31.55;5.00;;;;;;;;;;4901941;29;20040;-79
2023/12/28 09:36:57;;;;;;;31.13;5.85;;;;;;;;;;4901731;29;20047;-79
2023/12/28 09:39:23;;;;;;;30.80;5.15;;;;;;;;;;4917433;29;20048;-79
2023/12/28 09:41:53;;;;;;;29.08;4.47;;;;;;;;;;4917406;29;20127;-79
2023/12/28 09:44:20;;;;;;;34.65;5.68;;;;;;;;;;4917639;29;20516;-79
2023/12/28 09:46:46;;;;;;;38.63;4.85;;;;;;;;;;4902051;29;20044;-79
2023/12/28 09:49:12;;;;;;;42.40;5.68;;;;;;;;;;4901687;29;20051;-79
2023/12/28 09:51:38;;;;;;;33.60;5.15;;;;;;;;;;4887504;29;20071;-79
2023/12/28 09:54:04;;;;;;;26.30;4.40;;;;;;;;;;4902233;29;20115;-79
2023/12/28 09:56:32;;;;;;;35.67;5.47;;;;;;;;;;4917854;29;20043;-79
2023/12/28 09:58:58;;;;;;;31.08;5.55;;;;;;;;;;4917507;29;20043;-79
2023/12/28 10:01:25;;;;;;;29.65;5.00;;;;;;;;;;4917484;29;20477;-79
2023/12/28 10:03:51;;;;;;;25.60;4.78;;;;;;;;;;4917496;29;20139;-79
2023/12/28 10:06:17;;;;;;;27.10;4.93;;;;;;;;;;4901701;29;20059;-79
2023/12/28 10:08:47;;;;;;;34.67;5.15;;;;;;;;;;4917164;29;20117;-79
2023/12/28 10:11:15;;;;;;;32.78;5.05;;;;;;;;;;4916873;29;20048;-79
2023/12/28 10:13:43;;;;;;;29.35;3.92;;;;;;;;;;4901385;29;20087;-79
2023/12/28 10:16:10;;;;;;;30.50;4.75;;;;;;;;;;4917232;29;20040;-79
2023/12/28 10:18:37;;;;;;;27.27;4.50;;;;;;;;;;4901522;29;20214;-79
2023/12/28 10:21:03;;;;;;;31.48;5.35;;;;;;;;;;4918600;29;20102;-79
2023/12/28 10:23:30;;;;;;;33.28;4.63;;;;;;;;;;4904288;29;20055;-79
2023/12/28 10:25:56;;;;;;;28.55;4.50;;;;;;;;;;4904757;29;20059;-79
2023/12/28 10:28:22;;;;;;;28.13;5.07;;;;;;;;;;4904110;29;20039;-79
2023/12/28 10:30:48;;;;;;;29.77;7.30;;;;;;;;;;4920204;29;20544;-80
2023/12/28 10:33:15;;;;;;;24.27;4.75;;;;;;;;;;4919894;29;20036;-79
2023/12/28 10:35:41;;;;;;;28.10;4.80;;;;;;;;;;4919435;29;20047;-79
2023/12/28 10:38:08;;;;;;;23.33;4.60;;;;;;;;;;4919387;29;20504;-73
2023/12/28 10:40:36;;;;;;;28.05;4.82;;;;;;;;;;4919436;29;20044;-74
2023/12/28 10:43:04;;;;;;;23.85;4.22;;;;;;;;;;4919616;29;20048;-74
2023/12/28 10:45:33;;;;;;;25.70;3.90;;;;;;;;;;4919376;29;20062;-75
2023/12/28 10:48:10;;;;;;;31.70;4.38;;;;;;;;;;4903261;29;20047;-75
2023/12/28 10:50:37;;;;;;;32.67;4.78;;;;;;;;;;4918936;29;20043;-74
2023/12/28 10:53:07;;;;;;;29.00;3.95;;;;;;;;;;4903257;29;20047;-80
2023/12/28 10:55:33;;;;;;;26.25;4.68;;;;;;;;;;4919228;29;20488;-79
2023/12/28 10:58:11;;;;;;;23.00;4.70;;;;;;;;;;4919200;29;20483;-79
2023/12/28 11:00:42;;;;;;;44.33;4.30;;;;;;;;;;4903306;29;20127;-79
2023/12/28 11:03:09;;;;;;;38.90;4.68;;;;;;;;;;4930676;29;20054;-80
2023/12/28 11:05:36;;;;;;;24.90;4.05;;;;;;;;;;4923712;29;20043;-79
2023/12/28 11:08:03;;;;;;;31.23;3.88;;;;;;;;;;4939253;29;20050;-79
2023/12/28 11:10:30;;;;;;;30.48;5.88;;;;;;;;;;4938732;29;20122;-79
2023/12/28 11:12:57;;;;;;;27.60;4.78;;;;;;;;;;4938230;29;20582;-79
2023/12/28 11:15:24;;;;;;;27.13;5.43;;;;;;;;;;4922183;29;20039;-80
2023/12/28 11:17:50;;;;;;;27.52;4.53;;;;;;;;;;4922443;29;20035;-79
2023/12/28 11:20:16;;;;;;;33.15;4.95;;;;;;;;;;4906378;29;20074;-79
2023/12/28 11:22:43;;;;;;;27.15;4.78;;;;;;;;;;4921810;29;20061;-79
2023/12/28 11:25:16;;;;;;;32.90;4.63;;;;;;;;;;4922031;29;20047;-80
2023/12/28 11:27:42;;;;;;;28.48;4.82;;;;;;;;;;4921841;29;20484;-79
2023/12/28 11:30:10;;;;;;;33.05;6.30;;;;;;;;;;4921821;29;20039;-79
2023/12/28 11:32:37;;;;;;;30.33;5.50;;;;;;;;;;4937568;29;20043;-79
2023/12/28 11:35:09;;;;;;;30.30;5.35;;;;;;;;;;4922339;29;20130;-80
2023/12/28 11:37:36;;;;;;;31.08;5.18;;;;;;;;;;4937989;29;20051;-79
2023/12/28 11:40:14;;;;;;;25.10;5.85;;;;;;;;;;4928209;28;20046;-79
2023/12/28 11:42:48;;;;;;;32.22;4.80;;;;;;;;;;4930690;29;20075;-80
2023/12/28 11:45:16;;;;;;;29.63;5.07;;;;;;;;;;4943641;29;20055;-79
2023/12/28 11:47:42;;;;;;;28.40;4.80;;;;;;;;;;4927811;29;20560;-79
2023/12/28 11:50:09;;;;;;;27.95;4.50;;;;;;;;;;4938441;28;20062;-79
2023/12/28 11:52:35;;;;;;;31.75;4.68;;;;;;;;;;4925681;29;20070;-79
2023/12/28 11:55:01;;;;;;;26.95;5.35;;;;;;;;;;4946495;29;20039;-79
2023/12/28 11:57:27;;;;;;;32.63;4.90;;;;;;;;;;4922573;29;20043;-79
2023/12/28 11:59:54;;;;;;;33.30;4.80;;;;;;;;;;4940352;29;20047;-79
2023/12/28 12:02:20;;;;;;;26.55;4.20;;;;;;;;;;4937948;29;20134;-79
2023/12/28 12:04:46;;;;;;;35.67;5.95;;;;;;;;;;4937752;28;20047;-80
2023/12/28 12:07:12;;;;;;;28.77;4.70;;;;;;;;;;4921642;29;20047;-79
2023/12/28 12:09:39;;;;;;;35.00;6.80;;;;;;;;;;4937224;29;20097;-79
2023/12/28 12:12:05;;;;;;;26.50;4.35;;;;;;;;;;4937420;29;20484;-79
2023/12/28 12:14:31;;;;;;;30.45;4.38;;;;;;;;;;4922029;29;20451;-79
2023/12/28 12:16:58;;;;;;;28.55;4.78;;;;;;;;;;4922066;29;20391;-79
2023/12/28 12:19:25;;;;;;;34.40;6.35;;;;;;;;;;4906090;28;20078;-78
2023/12/28 12:21:57;;;;;;;38.08;6.40;;;;;;;;;;4936363;29;20056;-80
2023/12/28 12:24:24;;;;;;;34.70;5.82;;;;;;;;;;4934268;29;20059;-79
2023/12/28 12:26:50;;;;;;;39.03;5.32;;;;;;;;;;4918372;29;20047;-79
2023/12/28 12:29:17;;;;;;;37.83;5.00;;;;;;;;;;4934150;29;20409;-79
2023/12/28 12:31:43;;;;;;;30.92;5.05;;;;;;;;;;4902580;29;20047;-79
2023/12/28 12:34:10;;;;;;;28.17;4.65;;;;;;;;;;4902639;29;20050;-79
2023/12/28 12:36:37;;;;;;;30.00;5.07;;;;;;;;;;4933863;29;20059;-79
2023/12/28 12:39:07;;;;;;;35.40;4.38;;;;;;;;;;4933998;29;20050;-79
2023/12/28 12:41:36;;;;;;;30.23;4.55;;;;;;;;;;4934040;29;20048;-79
2023/12/28 12:44:02;;;;;;;25.77;4.88;;;;;;;;;;4918559;29;20374;-79
2023/12/28 12:46:28;;;;;;;35.20;5.75;;;;;;;;;;4937330;29;20111;-79
2023/12/28 12:48:56;;;;;;;31.67;5.82;;;;;;;;;;4937432;29;20048;-79
2023/12/28 12:51:22;;;;;;;27.52;4.45;;;;;;;;;;4906101;29;20106;-79
2023/12/28 12:53:48;;;;;;;27.48;4.85;;;;;;;;;;4937448;29;20130;-79
2023/12/28 12:56:14;;;;;;;28.83;4.00;;;;;;;;;;4937260;29;20509;-80
2023/12/28 12:58:40;;;;;;;27.60;4.72;;;;;;;;;;4921334;29;20047;-79
2023/12/28 13:01:11;;;;;;;28.45;4.78;;;;;;;;;;4937096;29;20062;-80
2023/12/28 13:03:38;;;;;;;35.90;4.80;;;;;;;;;;4937027;29;20043;-79
2023/12/28 13:06:04;;;;;;;28.02;4.57;;;;;;;;;;4922975;29;20147;-79
2023/12/28 13:08:30;;;;;;;28.60;4.85;;;;;;;;;;4938602;29;20127;-80
2023/12/28 13:10:56;;;;;;;26.02;4.50;;;;;;;;;;4939632;29;20079;-79
2023/12/28 13:13:22;;;;;;;21.63;3.67;;;;;;;;;;4920999;29;20036;-79
2023/12/28 13:15:48;;;;;;;30.77;4.68;;;;;;;;;;4921012;29;20082;-79
2023/12/28 13:18:15;;;;;;;24.35;3.97;;;;;;;;;;4936737;29;20079;-80
2023/12/28 13:20:42;;;;;;;31.77;4.63;;;;;;;;;;4936649;29;20047;-79
2023/12/28 13:23:08;;;;;;;30.75;4.50;;;;;;;;;;4921449;29;20070;-79
2023/12/28 13:25:35;;;;;;;22.85;4.53;;;;;;;;;;4936845;29;20157;-79
2023/12/28 13:28:01;;;;;;;29.20;4.82;;;;;;;;;;4936544;29;20039;-79
2023/12/28 13:30:28;;;;;;;32.38;5.13;;;;;;;;;;4936505;29;20043;-79
2023/12/28 13:32:56;;;;;;;27.73;4.25;;;;;;;;;;4920849;29;20035;-79
2023/12/28 13:35:22;;;;;;;21.20;3.70;;;;;;;;;;4936664;29;20436;-79
2023/12/28 13:37:48;;;;;;;20.27;3.58;;;;;;;;;;4936360;29;20043;-79
2023/12/28 13:40:15;;;;;;;31.05;5.03;;;;;;;;;;4920657;29;20488;-79
2023/12/28 13:42:41;;;;;;;36.42;4.38;;;;;;;;;;4936316;29;20036;-80
2023/12/28 13:45:07;;;;;;;34.33;4.47;;;;;;;;;;4920680;29;20567;-80
2023/12/28 13:47:34;;;;;;;35.42;5.07;;;;;;;;;;4936580;29;20031;-79
2023/12/28 13:50:00;;;;;;;28.95;4.88;;;;;;;;;;4936100;29;20046;-79
2023/12/28 13:52:26;;;;;;;29.98;4.13;;;;;;;;;;4920609;29;20040;-79
2023/12/28 13:54:52;;;;;;;33.42;5.75;;;;;;;;;;4936717;29;20051;-79
2023/12/28 13:57:18;;;;;;;42.58;4.75;;;;;;;;;;4923503;29;20075;-79
2023/12/28 13:59:44;;;;;;;29.23;4.85;;;;;;;;;;4921175;29;20047;-79
2023/12/28 14:02:10;;;;;;;25.17;4.07;;;;;;;;;;4936441;29;20043;-75
2023/12/28 14:04:36;;;;;;;28.33;5.22;;;;;;;;;;4904868;29;20043;-74
2023/12/28 14:07:03;;;;;;;35.40;5.05;;;;;;;;;;4936133;29;20158;-74
2023/12/28 14:09:30;;;;;;;27.10;4.85;;;;;;;;;;4935825;29;20051;-74
2023/12/28 14:11:56;;;;;;;16.08;3.55;;;;;;;;;;4936041;29;20075;-74
2023/12/28 14:14:22;;;;;;;27.17;3.70;;;;;;;;;;4920118;29;20490;-75
2023/12/28 14:16:48;;;;;;;21.88;3.45;;;;;;;;;;4919830;29;20086;-74
2023/12/28 14:19:14;;;;;;;26.33;4.60;;;;;;;;;;4920082;29;20131;-75
2023/12/28 14:21:42;;;;;;;20.45;4.38;;;;;;;;;;4904160;29;20056;-75
2023/12/28 14:24:09;;;;;;;31.10;4.75;;;;;;;;;;4919713;29;20408;-74
2023/12/28 14:26:39;;;;;;;28.83;5.25;;;;;;;;;;4904246;29;20451;-75